sensor_id;sensor_type;location;lat;lon;timestamp;P1;durP1;ratioP1;P2;durP2;ratioP2
30466;SDS011;17258;52.560;13.046;2022-12-26T00:01:06;3.38;;;1.75;;
30466;SDS011;17258;52.560;13.046;2022-12-26T00:11:10;1.88;;;1.77;;
30466;SDS011;17258;52.560;13.046;2022-12-26T00:21:13;1.80;;;1.70;;
30466;SDS011;17258;52.560;13.046;2022-12-26T00:31:22;1.98;;;1.85;;
30466;SDS011;17258;52.560;13.046;2022-12-26T00:41:28;4.85;;;2.15;;
30466;SDS011;17258;52.560;13.046;2022-12-26T00:51:29;1.83;;;1.70;;
30466;SDS011;17258;52.560;13.046;2022-12-26T01:01:29;2.10;;;1.60;;
30466;SDS011;17258;52.560;13.046;2022-12-26T01:11:31;1.58;;;1.48;;
30466;SDS011;17258;52.560;13.046;2022-12-26T01:21:40;1.58;;;1.48;;
30466;SDS011;17258;52.560;13.046;2022-12-26T01:31:42;3.17;;;1.75;;
30466;SDS011;17258;52.560;13.046;2022-12-26T01:41:42;1.80;;;1.70;;
30466;SDS011;17258;52.560;13.046;2022-12-26T01:51:43;3.60;;;1.43;;
30466;SDS011;17258;52.560;13.046;2022-12-26T02:01:51;2.93;;;1.87;;
30466;SDS011;17258;52.560;13.046;2022-12-26T02:11:55;1.80;;;1.70;;
30466;SDS011;17258;52.560;13.046;2022-12-26T02:32:20;1.90;;;1.80;;
30466;SDS011;17258;52.560;13.046;2022-12-26T02:53:17;2.60;;;1.98;;
30466;SDS011;17258;52.560;13.046;2022-12-26T03:04:05;1.38;;;1.27;;
30466;SDS011;17258;52.560;13.046;2022-12-26T03:15:04;1.67;;;1.58;;
30466;SDS011;17258;52.560;13.046;2022-12-26T03:25:02;1.42;;;1.33;;
30466;SDS011;17258;52.560;13.046;2022-12-26T03:35:29;1.60;;;1.50;;
30466;SDS011;17258;52.560;13.046;2022-12-26T03:56:09;2.33;;;1.80;;
30466;SDS011;17258;52.560;13.046;2022-12-26T04:06:56;1.80;;;1.70;;
30466;SDS011;17258;52.560;13.046;2022-12-26T04:17:26;1.55;;;1.45;;
30466;SDS011;17258;52.560;13.046;2022-12-26T04:28:05;1.70;;;1.60;;
30466;SDS011;17258;52.560;13.046;2022-12-26T04:38:26;1.90;;;1.80;;
30466;SDS011;17258;52.560;13.046;2022-12-26T04:48:49;1.80;;;1.70;;
30466;SDS011;17258;52.560;13.046;2022-12-26T04:59:09;1.75;;;1.58;;
30466;SDS011;17258;52.560;13.046;2022-12-26T05:09:10;2.00;;;1.63;;
30466;SDS011;17258;52.560;13.046;2022-12-26T05:19:32;7.10;;;1.52;;
30466;SDS011;17258;52.560;13.046;2022-12-26T05:29:51;2.47;;;2.30;;
30466;SDS011;17258;52.560;13.046;2022-12-26T05:39:52;2.10;;;2.00;;
30466;SDS011;17258;52.560;13.046;2022-12-26T05:49:52;1.93;;;1.63;;
30466;SDS011;17258;52.560;13.046;2022-12-26T05:59:53;1.67;;;1.58;;
30466;SDS011;17258;52.560;13.046;2022-12-26T06:09:54;1.97;;;1.87;;
30466;SDS011;17258;52.560;13.046;2022-12-26T06:19:54;1.60;;;1.50;;
30466;SDS011;17258;52.560;13.046;2022-12-26T06:29:55;1.80;;;1.70;;
30466;SDS011;17258;52.560;13.046;2022-12-26T06:39:55;2.03;;;1.93;;
30466;SDS011;17258;52.560;13.046;2022-12-26T06:49:56;3.50;;;2.80;;
30466;SDS011;17258;52.560;13.046;2022-12-26T06:59:57;2.73;;;2.37;;
30466;SDS011;17258;52.560;13.046;2022-12-26T07:09:57;2.37;;;2.23;;
30466;SDS011;17258;52.560;13.046;2022-12-26T07:19:58;2.63;;;2.43;;
30466;SDS011;17258;52.560;13.046;2022-12-26T07:29:59;2.75;;;2.33;;
30466;SDS011;17258;52.560;13.046;2022-12-26T07:39:59;3.83;;;2.60;;
30466;SDS011;17258;52.560;13.046;2022-12-26T07:50:00;2.40;;;2.20;;
30466;SDS011;17258;52.560;13.046;2022-12-26T08:00:01;2.40;;;2.20;;
30466;SDS011;17258;52.560;13.046;2022-12-26T08:10:03;2.53;;;2.33;;
30466;SDS011;17258;52.560;13.046;2022-12-26T08:20:04;2.05;;;1.95;;
30466;SDS011;17258;52.560;13.046;2022-12-26T08:30:06;1.92;;;1.60;;
30466;SDS011;17258;52.560;13.046;2022-12-26T08:40:08;1.50;;;1.40;;
30466;SDS011;17258;52.560;13.046;2022-12-26T08:50:09;1.83;;;1.42;;
30466;SDS011;17258;52.560;13.046;2022-12-26T09:00:10;1.60;;;1.40;;
30466;SDS011;17258;52.560;13.046;2022-12-26T09:10:11;1.67;;;1.45;;
30466;SDS011;17258;52.560;13.046;2022-12-26T09:20:12;2.13;;;1.30;;
30466;SDS011;17258;52.560;13.046;2022-12-26T09:30:13;2.17;;;1.43;;
30466;SDS011;17258;52.560;13.046;2022-12-26T09:40:21;1.92;;;1.83;;
30466;SDS011;17258;52.560;13.046;2022-12-26T09:50:29;1.77;;;1.67;;
30466;SDS011;17258;52.560;13.046;2022-12-26T10:00:40;1.80;;;1.70;;
30466;SDS011;17258;52.560;13.046;2022-12-26T10:11:02;1.40;;;1.40;;
30466;SDS011;17258;52.560;13.046;2022-12-26T10:21:08;1.70;;;1.55;;
30466;SDS011;17258;52.560;13.046;2022-12-26T10:31:33;1.70;;;1.60;;
30466;SDS011;17258;52.560;13.046;2022-12-26T10:41:46;1.50;;;1.40;;
30466;SDS011;17258;52.560;13.046;2022-12-26T10:51:52;1.30;;;1.13;;
30466;SDS011;17258;52.560;13.046;2022-12-26T11:01:55;1.60;;;1.48;;
30466;SDS011;17258;52.560;13.046;2022-12-26T11:22:41;1.27;;;1.17;;
30466;SDS011;17258;52.560;13.046;2022-12-26T11:32:44;1.50;;;1.40;;
30466;SDS011;17258;52.560;13.046;2022-12-26T11:42:49;1.80;;;1.40;;
30466;SDS011;17258;52.560;13.046;2022-12-26T12:02:54;2.00;;;1.90;;
30466;SDS011;17258;52.560;13.046;2022-12-26T12:12:59;1.50;;;1.40;;
30466;SDS011;17258;52.560;13.046;2022-12-26T12:33:40;1.98;;;1.80;;
30466;SDS011;17258;52.560;13.046;2022-12-26T13:04:50;2.05;;;1.95;;
30466;SDS011;17258;52.560;13.046;2022-12-26T13:15:04;1.73;;;1.63;;
30466;SDS011;17258;52.560;13.046;2022-12-26T13:25:12;1.38;;;1.27;;
30466;SDS011;17258;52.560;13.046;2022-12-26T13:45:56;1.75;;;1.65;;
30466;SDS011;17258;52.560;13.046;2022-12-26T13:56:01;1.92;;;1.83;;
30466;SDS011;17258;52.560;13.046;2022-12-26T14:06:22;2.22;;;2.10;;
30466;SDS011;17258;52.560;13.046;2022-12-26T14:27:29;2.10;;;2.00;;
30466;SDS011;17258;52.560;13.046;2022-12-26T14:48:55;3.05;;;1.73;;
30466;SDS011;17258;52.560;13.046;2022-12-26T15:09:33;1.92;;;1.83;;
30466;SDS011;17258;52.560;13.046;2022-12-26T15:31:09;2.17;;;2.08;;
30466;SDS011;17258;52.560;13.046;2022-12-26T15:41:38;2.30;;;1.95;;
30466;SDS011;17258;52.560;13.046;2022-12-26T15:52:06;1.67;;;1.58;;
30466;SDS011;17258;52.560;13.046;2022-12-26T16:02:37;1.60;;;1.50;;
30466;SDS011;17258;52.560;13.046;2022-12-26T16:12:55;1.52;;;1.42;;
30466;SDS011;17258;52.560;13.046;2022-12-26T16:22:56;1.25;;;1.25;;
30466;SDS011;17258;52.560;13.046;2022-12-26T16:32:57;1.20;;;1.10;;
30466;SDS011;17258;52.560;13.046;2022-12-26T16:43:03;1.40;;;1.30;;
30466;SDS011;17258;52.560;13.046;2022-12-26T16:53:17;2.17;;;1.02;;
30466;SDS011;17258;52.560;13.046;2022-12-26T17:03:23;0.85;;;0.85;;
30466;SDS011;17258;52.560;13.046;2022-12-26T17:13:28;2.37;;;1.10;;
30466;SDS011;17258;52.560;13.046;2022-12-26T17:23:31;1.02;;;0.75;;
30466;SDS011;17258;52.560;13.046;2022-12-26T17:33:36;1.02;;;0.80;;
30466;SDS011;17258;52.560;13.046;2022-12-26T17:43:37;1.43;;;1.07;;
30466;SDS011;17258;52.560;13.046;2022-12-26T17:53:39;1.17;;;1.10;;
30466;SDS011;17258;52.560;13.046;2022-12-26T18:03:42;0.90;;;0.90;;
30466;SDS011;17258;52.560;13.046;2022-12-26T18:13:43;2.83;;;1.20;;
30466;SDS011;17258;52.560;13.046;2022-12-26T18:23:44;2.07;;;1.40;;
30466;SDS011;17258;52.560;13.046;2022-12-26T18:33:44;2.55;;;1.10;;
30466;SDS011;17258;52.560;13.046;2022-12-26T18:43:45;0.97;;;0.80;;
30466;SDS011;17258;52.560;13.046;2022-12-26T18:53:46;0.95;;;0.95;;
30466;SDS011;17258;52.560;13.046;2022-12-26T19:03:47;3.83;;;1.40;;
30466;SDS011;17258;52.560;13.046;2022-12-26T19:13:48;1.08;;;0.80;;
30466;SDS011;17258;52.560;13.046;2022-12-26T19:23:49;0.90;;;0.90;;
30466;SDS011;17258;52.560;13.046;2022-12-26T19:33:50;2.87;;;1.00;;
30466;SDS011;17258;52.560;13.046;2022-12-26T19:43:55;1.08;;;0.80;;
30466;SDS011;17258;52.560;13.046;2022-12-26T19:53:56;1.02;;;0.93;;
30466;SDS011;17258;52.560;13.046;2022-12-26T20:03:58;2.78;;;1.00;;
30466;SDS011;17258;52.560;13.046;2022-12-26T20:14:01;1.45;;;0.98;;
30466;SDS011;17258;52.560;13.046;2022-12-26T20:24:05;2.28;;;0.98;;
30466;SDS011;17258;52.560;13.046;2022-12-26T20:34:05;2.42;;;1.08;;
30466;SDS011;17258;52.560;13.046;2022-12-26T20:44:06;7.07;;;1.13;;
30466;SDS011;17258;52.560;13.046;2022-12-26T20:54:07;1.52;;;1.08;;
30466;SDS011;17258;52.560;13.046;2022-12-26T21:04:15;1.85;;;1.15;;
30466;SDS011;17258;52.560;13.046;2022-12-26T21:14:21;2.28;;;1.30;;
30466;SDS011;17258;52.560;13.046;2022-12-26T21:24:27;3.90;;;1.52;;
30466;SDS011;17258;52.560;13.046;2022-12-26T21:34:30;2.60;;;1.27;;
30466;SDS011;17258;52.560;13.046;2022-12-26T21:44:33;5.10;;;1.58;;
30466;SDS011;17258;52.560;13.046;2022-12-26T21:54:34;4.28;;;1.40;;
30466;SDS011;17258;52.560;13.046;2022-12-26T22:04:53;2.35;;;1.30;;
30466;SDS011;17258;52.560;13.046;2022-12-26T22:14:54;7.00;;;1.60;;
30466;SDS011;17258;52.560;13.046;2022-12-26T22:24:54;2.03;;;1.30;;
30466;SDS011;17258;52.560;13.046;2022-12-26T22:34:55;4.53;;;1.10;;
30466;SDS011;17258;52.560;13.046;2022-12-26T22:44:56;7.33;;;1.77;;
30466;SDS011;17258;52.560;13.046;2022-12-26T22:54:56;5.75;;;1.38;;
30466;SDS011;17258;52.560;13.046;2022-12-26T23:04:57;4.93;;;1.20;;
30466;SDS011;17258;52.560;13.046;2022-12-26T23:14:58;3.88;;;1.35;;
30466;SDS011;17258;52.560;13.046;2022-12-26T23:24:59;2.80;;;1.05;;
30466;SDS011;17258;52.560;13.046;2022-12-26T23:35:00;2.45;;;1.13;;
30466;SDS011;17258;52.560;13.046;2022-12-26T23:45:01;2.33;;;0.90;;
30466;SDS011;17258;52.560;13.046;2022-12-26T23:55:03;4.15;;;1.40;;
